Terminal Aerodrome Forecast
Issued by NWS

Home | Current Version | Previous Version | Text Only | Print | Product List | Glossary On
Versions: 1 2 3 4 5 6 7 8 9 10 11 12 13 14 15 16
000
FTUS46 KMTR 232320
TAFSNS
TAF
KSNS 232320Z 2400/2424 29014KT P6SM SCT012
     FM240200 29008KT P6SM BKN010
     FM240600 31004KT P6SM OVC007
      TEMPO 2410/2414 1/2SM FG OVC002
     FM241700 28004KT P6SM SCT010
     FM241900 28010KT P6SM SKC=

USA.gov is the U.S. government's official web portal to all federal, state and local government web resources and services.